createdAt,value
2022-10-19T00:02:17.515Z,72.31
2022-10-19T00:04:44.501Z,72.48
2022-10-19T00:07:10.876Z,72.69
2022-10-19T00:09:37.245Z,72.87
2022-10-19T00:12:03.662Z,72.45
2022-10-19T00:14:30.011Z,72.73
2022-10-19T00:16:57.986Z,72.79
2022-10-19T00:19:26.996Z,72.57
2022-10-19T00:21:53.432Z,72.90
2022-10-19T00:24:20.789Z,72.84
2022-10-19T00:26:47.174Z,72.96
2022-10-19T00:29:14.552Z,73.18
2022-10-19T00:31:41.775Z,73.29
2022-10-19T00:34:08.237Z,72.96
2022-10-19T00:36:38.597Z,73.03
2022-10-19T00:39:07.037Z,72.91
2022-10-19T00:41:36.123Z,72.99
2022-10-19T00:44:27.097Z,73.08
2022-10-19T00:46:53.701Z,73.44
2022-10-19T00:49:26.712Z,73.38
2022-10-19T00:51:56.101Z,73.06
2022-10-19T00:54:23.656Z,73.37
2022-10-19T00:56:53.110Z,73.30
2022-10-19T00:59:22.047Z,73.55
2022-10-19T01:01:49.381Z,73.03
2022-10-19T01:04:15.858Z,73.00
2022-10-19T01:06:42.386Z,73.04
2022-10-19T01:09:08.896Z,72.81
2022-10-19T01:12:06.293Z,73.12
2022-10-19T01:14:55.201Z,72.94
2022-10-19T01:17:40.502Z,72.99
2022-10-19T01:20:31.425Z,73.04
2022-10-19T01:24:04.606Z,73.01
2022-10-19T01:26:53.976Z,73.53
2022-10-19T01:29:44.793Z,73.30
2022-10-19T01:32:21.719Z,73.30
2022-10-19T01:34:57.960Z,73.48
2022-10-19T01:37:34.219Z,73.31
2022-10-19T01:40:12.449Z,73.02
2022-10-19T01:45:40.768Z,73.13
2022-10-19T01:48:22.130Z,73.01
2022-10-19T01:51:01.342Z,73.71
2022-10-19T01:53:32.961Z,73.81
2022-10-19T01:56:03.072Z,73.95
2022-10-19T01:58:35.056Z,73.07
2022-10-19T02:01:06.912Z,73.11
2022-10-19T02:03:35.039Z,73.84
2022-10-19T02:06:05.990Z,73.76
2022-10-19T02:08:40.403Z,73.83
2022-10-19T02:11:06.920Z,73.51
2022-10-19T02:13:33.978Z,74.29
2022-10-19T02:16:06.521Z,74.00
2022-10-19T02:18:42.306Z,73.87
2022-10-19T02:21:09.401Z,73.57
2022-10-19T02:23:36.374Z,74.29
2022-10-19T02:26:03.539Z,73.93
2022-10-19T02:28:30.395Z,73.70
2022-10-19T02:30:58.181Z,74.05
2022-10-19T02:33:24.878Z,73.89
2022-10-19T02:35:51.244Z,74.14
2022-10-19T02:38:21.550Z,73.89
2022-10-19T02:40:56.921Z,73.56
2022-10-19T02:43:26.706Z,73.39
2022-10-19T02:46:22.254Z,73.94
2022-10-19T02:48:51.617Z,73.73
2022-10-19T02:51:30.276Z,73.65
2022-10-19T02:53:57.392Z,73.66
2022-10-19T02:56:25.549Z,73.78
2022-10-19T02:58:51.972Z,73.80
2022-10-19T03:01:18.391Z,73.13
2022-10-19T03:03:44.817Z,73.77
2022-10-19T03:06:11.162Z,73.43
2022-10-19T03:08:37.537Z,73.72
2022-10-19T03:11:04.408Z,73.47
2022-10-19T03:13:30.787Z,73.58
2022-10-19T03:15:57.136Z,73.25
2022-10-19T03:18:23.533Z,73.69
2022-10-19T03:20:49.890Z,73.58
2022-10-19T03:23:16.255Z,73.43
2022-10-19T03:25:42.713Z,73.23
2022-10-19T03:28:09.050Z,73.21
2022-10-19T03:30:35.412Z,73.12
2022-10-19T03:33:01.751Z,73.63
2022-10-19T03:35:28.089Z,73.45
2022-10-19T03:37:54.446Z,73.81
2022-10-19T03:40:20.830Z,73.87
2022-10-19T03:42:47.189Z,73.62
2022-10-19T03:45:13.558Z,73.43
2022-10-19T03:47:39.925Z,74.18
2022-10-19T03:50:06.629Z,73.63
2022-10-19T03:52:32.969Z,73.57
2022-10-19T03:54:59.398Z,73.63
2022-10-19T03:57:25.758Z,73.79
2022-10-19T03:59:52.109Z,73.69
2022-10-19T04:02:18.479Z,73.67
2022-10-19T04:04:44.842Z,73.38
2022-10-19T04:07:11.216Z,73.71
2022-10-19T04:09:37.546Z,73.74
2022-10-19T04:12:04.107Z,74.07
2022-10-19T04:14:33.291Z,73.73
2022-10-19T04:17:05.497Z,73.36
2022-10-19T04:19:31.870Z,73.56
2022-10-19T04:21:58.607Z,73.81
2022-10-19T04:24:25.144Z,73.80
2022-10-19T04:26:53.953Z,73.59
2022-10-19T04:29:24.966Z,73.64
2022-10-19T04:31:54.317Z,73.34
2022-10-19T04:34:20.669Z,73.92
2022-10-19T04:36:47.011Z,73.78
2022-10-19T04:39:13.807Z,73.30
2022-10-19T04:41:40.147Z,73.07
2022-10-19T04:44:06.704Z,73.61
2022-10-19T04:46:33.197Z,73.24
2022-10-19T04:49:00.149Z,73.89
2022-10-19T04:51:27.231Z,73.31
2022-10-19T04:53:56.930Z,73.54
2022-10-19T04:56:26.910Z,73.86
2022-10-19T04:58:59.952Z,73.87
2022-10-19T05:01:28.196Z,73.76
2022-10-19T05:06:23.605Z,73.62
2022-10-19T05:08:50.461Z,73.49
2022-10-19T05:11:17.592Z,73.48
2022-10-19T05:13:44.142Z,73.75
2022-10-19T05:16:17.742Z,73.19
2022-10-19T05:18:56.028Z,73.50
2022-10-19T05:21:22.800Z,74.01
2022-10-19T05:23:52.621Z,74.17
2022-10-19T05:26:21.258Z,73.43
2022-10-19T05:28:56.216Z,73.93
2022-10-19T05:31:24.448Z,73.67
2022-10-19T05:33:51.213Z,73.96
2022-10-19T05:36:26.881Z,73.76
2022-10-19T05:38:55.750Z,73.50
2022-10-19T05:41:23.351Z,73.66
2022-10-19T05:43:55.491Z,73.83
2022-10-19T05:46:22.638Z,73.87
2022-10-19T05:48:49.214Z,73.43
2022-10-19T05:51:18.148Z,74.06
2022-10-19T05:53:45.198Z,74.27
2022-10-19T05:56:17.937Z,73.77
2022-10-19T05:58:44.759Z,74.04
2022-10-19T06:01:11.715Z,73.70
2022-10-19T06:03:38.476Z,74.27
2022-10-19T06:06:06.604Z,73.86
2022-10-19T06:08:33.350Z,74.52
2022-10-19T06:11:11.739Z,74.13
2022-10-19T06:13:39.570Z,73.96
2022-10-19T06:16:08.097Z,74.33
2022-10-19T06:18:35.344Z,74.05
2022-10-19T06:21:07.269Z,74.31
2022-10-19T06:23:34.810Z,74.32
2022-10-19T06:26:06.450Z,74.33
2022-10-19T06:28:33.109Z,74.63
2022-10-19T06:30:59.811Z,74.47
2022-10-19T06:33:32.753Z,74.95
2022-10-19T06:36:13.889Z,75.09
2022-10-19T06:38:40.837Z,74.29
2022-10-19T06:41:07.778Z,74.35
2022-10-19T06:43:35.051Z,74.83
2022-10-19T06:46:10.374Z,74.57
2022-10-19T06:48:37.029Z,74.93
2022-10-19T06:51:07.379Z,75.31
2022-10-19T06:53:35.049Z,75.76
2022-10-19T06:56:03.403Z,75.42
2022-10-19T06:58:31.025Z,75.51
2022-10-19T07:01:01.273Z,75.91
2022-10-19T07:03:30.671Z,75.67
2022-10-19T07:05:59.744Z,76.13
2022-10-19T07:08:28.506Z,76.61
2022-10-19T07:10:57.687Z,76.06
2022-10-19T07:13:24.673Z,76.35
2022-10-19T07:16:06.842Z,76.75
2022-10-19T07:18:36.930Z,76.45
2022-10-19T07:21:06.812Z,76.77
2022-10-19T07:23:35.624Z,76.94
2022-10-19T07:26:14.550Z,76.26
2022-10-19T07:28:42.839Z,76.52
2022-10-19T07:31:12.063Z,76.51
2022-10-19T07:33:38.615Z,77.04
2022-10-19T07:36:08.574Z,77.03
2022-10-19T07:38:35.713Z,77.10
2022-10-19T07:41:06.729Z,76.26
2022-10-19T07:43:33.554Z,76.53
2022-10-19T07:46:15.208Z,75.88
2022-10-19T07:48:42.341Z,75.62
2022-10-19T07:51:10.407Z,75.92
2022-10-19T07:53:37.440Z,75.79
2022-10-19T07:56:09.681Z,75.70
2022-10-19T07:58:37.367Z,75.57
2022-10-19T08:01:09.865Z,75.26
2022-10-19T08:04:31.752Z,75.08
2022-10-19T08:06:24.496Z,74.47
2022-10-19T08:08:51.349Z,74.46
2022-10-19T08:11:20.540Z,74.73
2022-10-19T08:13:47.144Z,74.38
2022-10-19T08:16:36.572Z,74.47
2022-10-19T08:19:10.961Z,74.40
2022-10-19T08:21:40.129Z,74.36
2022-10-19T08:24:07.473Z,73.91
2022-10-19T08:26:36.473Z,73.80
2022-10-19T08:29:05.722Z,73.44
2022-10-19T08:31:32.661Z,73.34
2022-10-19T08:33:59.504Z,73.44
2022-10-19T08:36:26.257Z,73.08
2022-10-19T08:38:52.653Z,72.67
2022-10-19T08:41:25.321Z,73.02
2022-10-19T08:44:09.344Z,72.67
2022-10-19T08:46:48.557Z,72.90
2022-10-19T08:49:20.184Z,72.97
2022-10-19T08:51:51.173Z,72.37
2022-10-19T08:54:18.200Z,72.23
2022-10-19T08:56:56.806Z,72.24
2022-10-19T08:59:51.094Z,71.95
2022-10-19T09:02:29.878Z,71.67
2022-10-19T09:05:05.253Z,71.62
2022-10-19T09:07:45.493Z,71.47
2022-10-19T09:10:15.599Z,70.95
2022-10-19T09:12:58.440Z,71.04
2022-10-19T09:15:46.339Z,70.31
2022-10-19T09:18:25.385Z,70.78
2022-10-19T09:21:00.092Z,70.15
2022-10-19T09:23:35.106Z,70.21
2022-10-19T09:26:02.130Z,69.85
2022-10-19T09:28:44.522Z,69.59
2022-10-19T09:31:19.418Z,70.06
2022-10-19T09:33:53.066Z,70.19
2022-10-19T09:36:22.737Z,69.60
2022-10-19T09:38:54.161Z,69.79
2022-10-19T09:41:23.354Z,69.49
2022-10-19T09:43:53.680Z,69.02
2022-10-19T09:46:55.267Z,68.80
2022-10-19T09:49:45.471Z,68.49
2022-10-19T09:52:29.806Z,69.03
2022-10-19T09:55:02.687Z,69.39
2022-10-19T09:57:30.498Z,68.37
2022-10-19T09:59:57.086Z,68.22
2022-10-19T10:02:33.169Z,68.66
2022-10-19T10:05:14.077Z,68.35
2022-10-19T10:07:41.082Z,68.35
2022-10-19T10:10:19.232Z,67.89
2022-10-19T10:12:46.650Z,67.11
2022-10-19T10:15:21.596Z,67.02
2022-10-19T10:17:49.432Z,66.58
2022-10-19T10:20:27.812Z,65.95
2022-10-19T10:22:58.282Z,65.98
2022-10-19T10:25:27.996Z,65.83
2022-10-19T10:28:00.870Z,66.49
2022-10-19T10:30:32.391Z,66.52
2022-10-19T10:33:08.121Z,66.22
2022-10-19T10:35:49.721Z,66.43
2022-10-19T10:38:26.302Z,66.40
2022-10-19T10:40:56.676Z,66.33
2022-10-19T10:43:30.587Z,68.91
2022-10-19T10:46:03.478Z,67.02
2022-10-19T10:49:01.862Z,66.64
2022-10-19T10:51:37.593Z,66.18
2022-10-19T10:54:26.756Z,66.67
2022-10-19T10:57:03.009Z,66.13
2022-10-19T10:59:45.752Z,66.01
2022-10-19T11:05:19.969Z,65.52
2022-10-19T11:07:50.341Z,65.66
2022-10-19T11:10:20.888Z,65.23
2022-10-19T11:12:58.961Z,64.94
2022-10-19T11:15:48.376Z,64.59
2022-10-19T11:18:22.293Z,64.46
2022-10-19T11:21:15.722Z,64.74
2022-10-19T11:24:05.906Z,65.11
2022-10-19T11:26:47.342Z,65.74
2022-10-19T11:29:36.524Z,65.88
2022-10-19T11:32:09.585Z,64.59
2022-10-19T11:35:16.429Z,64.99
2022-10-19T11:37:50.313Z,63.56
2022-10-19T11:41:17.255Z,63.35
2022-10-19T11:44:05.597Z,63.90
2022-10-19T11:46:49.041Z,64.13
2022-10-19T11:49:34.052Z,64.25
2022-10-19T11:52:24.245Z,63.36
2022-10-19T11:54:59.394Z,63.01
2022-10-19T11:57:32.057Z,62.71
2022-10-19T12:00:21.128Z,63.18
2022-10-19T12:03:08.494Z,63.26
2022-10-19T12:05:54.118Z,63.60
2022-10-19T12:08:42.762Z,63.28
2022-10-19T12:11:33.295Z,63.10
2022-10-19T12:14:04.829Z,62.57
2022-10-19T12:16:39.507Z,62.65
2022-10-19T12:19:11.489Z,62.84
2022-10-19T12:21:41.100Z,62.68
2022-10-19T12:24:15.885Z,62.73
2022-10-19T12:26:44.642Z,62.24
2022-10-19T12:29:19.533Z,62.47
2022-10-19T12:31:47.689Z,62.06
2022-10-19T12:34:19.695Z,61.67
2022-10-19T12:37:07.797Z,61.62
2022-10-19T12:39:56.144Z,61.31
2022-10-19T12:42:31.380Z,61.82
2022-10-19T12:45:25.406Z,61.40
2022-10-19T12:48:12.930Z,61.99
2022-10-19T12:50:48.401Z,62.24
2022-10-19T12:56:16.072Z,61.85
2022-10-19T12:58:46.716Z,62.06
2022-10-19T13:01:22.346Z,62.11
2022-10-19T13:04:08.293Z,62.11
2022-10-19T13:06:44.850Z,60.75
2022-10-19T13:09:29.909Z,60.61
2022-10-19T13:12:22.194Z,61.53
2022-10-19T13:15:04.981Z,61.50
2022-10-19T13:17:34.454Z,61.57
2022-10-19T13:20:13.163Z,61.41
2022-10-19T13:22:48.784Z,61.11
2022-10-19T13:25:27.117Z,61.32
2022-10-19T13:28:07.146Z,60.96
2022-10-19T13:30:39.551Z,60.94
2022-10-19T13:33:31.298Z,61.37
2022-10-19T13:36:00.718Z,61.34
2022-10-19T13:38:32.237Z,61.38
2022-10-19T13:41:21.711Z,61.61
2022-10-19T13:44:18.098Z,61.41
2022-10-19T13:47:02.806Z,61.50
2022-10-19T13:49:50.489Z,61.32
2022-10-19T13:52:26.071Z,61.59
2022-10-19T13:55:30.217Z,61.46
2022-10-19T13:58:18.561Z,61.08
2022-10-19T14:01:11.673Z,61.21
2022-10-19T14:03:53.094Z,60.81
2022-10-19T14:06:33.340Z,60.56
2022-10-19T14:09:27.154Z,61.21
2022-10-19T14:12:06.250Z,61.65
2022-10-19T14:14:43.700Z,61.80
2022-10-19T14:17:16.133Z,61.30
2022-10-19T14:19:43.900Z,61.23
2022-10-19T14:22:24.190Z,61.60
2022-10-19T14:24:50.630Z,61.86
2022-10-19T14:27:22.938Z,61.80
2022-10-19T14:29:52.741Z,61.70
2022-10-19T14:32:26.087Z,61.88
2022-10-19T14:34:53.796Z,61.63
2022-10-19T14:37:25.721Z,61.51
2022-10-19T14:40:01.386Z,61.97
2022-10-19T14:42:43.421Z,62.01
2022-10-19T14:45:22.610Z,61.48
2022-10-19T14:47:59.362Z,62.17
2022-10-19T14:50:42.668Z,62.27
2022-10-19T14:53:31.949Z,62.55
2022-10-19T14:56:04.690Z,62.18
2022-10-19T14:58:39.391Z,62.33
2022-10-19T15:01:06.303Z,62.70
2022-10-19T15:03:33.553Z,62.82
2022-10-19T15:06:04.196Z,62.40
2022-10-19T15:08:42.572Z,61.94
2022-10-19T15:11:23.356Z,62.14
2022-10-19T15:13:57.868Z,62.86
2022-10-19T15:16:33.654Z,62.80
2022-10-19T15:19:14.341Z,63.00
2022-10-19T15:21:40.768Z,63.54
2022-10-19T15:24:40.906Z,63.55
2022-10-19T15:27:21.672Z,63.64
2022-10-19T15:30:04.067Z,63.80
2022-10-19T15:32:35.453Z,63.73
2022-10-19T15:35:30.083Z,63.88
2022-10-19T15:38:12.221Z,63.55
2022-10-19T15:40:41.337Z,63.84
2022-10-19T15:43:36.874Z,63.92
2022-10-19T15:46:07.341Z,63.94
2022-10-19T15:48:52.509Z,64.43
2022-10-19T15:51:33.163Z,64.27
2022-10-19T15:54:02.245Z,64.51
2022-10-19T15:56:31.069Z,64.75
2022-10-19T15:59:00.008Z,64.79
2022-10-19T16:01:28.730Z,65.12
2022-10-19T16:03:55.550Z,64.97
2022-10-19T16:06:25.794Z,64.86
2022-10-19T16:08:53.896Z,64.94
2022-10-19T16:11:23.009Z,64.67
2022-10-19T16:13:49.398Z,66.33
2022-10-19T16:16:22.538Z,65.69
2022-10-19T16:18:49.004Z,64.96
2022-10-19T16:21:15.932Z,65.23
2022-10-19T16:23:42.424Z,65.30
2022-10-19T16:26:09.093Z,65.46
2022-10-19T16:28:35.918Z,68.18
2022-10-19T16:31:02.322Z,66.31
2022-10-19T16:33:28.673Z,65.82
2022-10-19T16:35:55.021Z,65.47
2022-10-19T16:38:21.424Z,66.47
2022-10-19T16:40:47.921Z,65.55
2022-10-19T16:43:14.318Z,64.98
2022-10-19T16:45:44.608Z,64.92
2022-10-19T16:48:13.732Z,65.11
2022-10-19T16:50:40.147Z,65.53
2022-10-19T16:53:12.593Z,66.34
2022-10-19T16:55:40.548Z,66.31
2022-10-19T16:58:06.978Z,66.17
2022-10-19T17:00:33.556Z,65.58
2022-10-19T17:02:59.933Z,65.75
2022-10-19T17:05:26.282Z,66.08
2022-10-19T17:07:52.617Z,66.36
2022-10-19T17:10:19.034Z,66.38
2022-10-19T17:12:45.440Z,66.82
2022-10-19T17:15:42.493Z,66.63
2022-10-19T17:17:59.508Z,67.06
2022-10-19T17:20:25.878Z,67.24
2022-10-19T17:22:52.223Z,67.52
2022-10-19T17:25:18.585Z,67.28
2022-10-19T17:27:44.938Z,67.14
2022-10-19T17:30:11.355Z,67.21
2022-10-19T17:32:37.980Z,67.40
2022-10-19T17:35:04.740Z,67.08
2022-10-19T17:37:31.102Z,67.54
2022-10-19T17:39:57.481Z,67.72
2022-10-19T17:42:23.892Z,67.90
2022-10-19T17:44:50.276Z,67.39
2022-10-19T17:47:16.666Z,67.50
2022-10-19T17:49:43.010Z,67.89
2022-10-19T17:52:09.366Z,67.62
2022-10-19T17:54:43.715Z,68.17
2022-10-19T17:57:20.794Z,68.25
2022-10-19T17:59:52.953Z,67.84
2022-10-19T18:02:19.656Z,67.87
2022-10-19T18:04:46.331Z,67.91
2022-10-19T18:07:12.686Z,67.74
2022-10-19T18:09:39.157Z,67.75
2022-10-19T18:12:07.585Z,67.72
2022-10-19T18:14:34.267Z,67.52
2022-10-19T18:17:00.830Z,68.14
2022-10-19T18:19:27.247Z,67.97
2022-10-19T18:21:53.660Z,67.85
2022-10-19T18:24:21.273Z,67.51
2022-10-19T18:26:50.497Z,67.83
2022-10-19T18:29:20.313Z,67.63
2022-10-19T18:31:52.109Z,67.50
2022-10-19T18:34:21.575Z,67.13
2022-10-19T18:36:48.854Z,66.93
2022-10-19T18:39:15.718Z,67.74
2022-10-19T18:41:42.518Z,67.58
2022-10-19T18:44:12.889Z,67.40
2022-10-19T18:46:39.300Z,67.91
2022-10-19T18:49:08.158Z,67.85
2022-10-19T18:51:35.477Z,68.20
2022-10-19T18:54:02.029Z,68.37
2022-10-19T18:56:29.356Z,68.37
2022-10-19T18:58:56.856Z,68.47
2022-10-19T19:01:26.454Z,68.38
2022-10-19T19:03:55.159Z,68.10
2022-10-19T19:06:25.009Z,68.22
2022-10-19T19:08:54.646Z,68.12
2022-10-19T19:11:23.660Z,68.14
2022-10-19T19:13:58.650Z,68.08
2022-10-19T19:16:26.536Z,68.23
2022-10-19T19:18:54.322Z,67.91
2022-10-19T19:21:23.097Z,68.80
2022-10-19T19:23:51.093Z,68.23
2022-10-19T19:26:19.329Z,68.50
2022-10-19T19:28:49.039Z,68.21
2022-10-19T19:31:18.489Z,67.83
2022-10-19T19:33:45.800Z,68.02
2022-10-19T19:36:14.757Z,67.68
2022-10-19T19:38:41.147Z,67.89
2022-10-19T19:41:10.490Z,68.24
2022-10-19T19:43:38.486Z,68.77
2022-10-19T19:46:15.296Z,68.38
2022-10-19T19:48:44.522Z,69.21
2022-10-19T19:51:13.409Z,68.54
2022-10-19T19:53:40.081Z,69.37
2022-10-19T19:56:08.569Z,69.21
2022-10-19T19:58:35.069Z,68.90
2022-10-19T20:01:12.541Z,69.11
2022-10-19T20:03:40.686Z,69.23
2022-10-19T20:06:07.350Z,69.37
2022-10-19T20:08:36.012Z,69.02
2022-10-19T20:11:06.711Z,69.44
2022-10-19T20:13:33.510Z,69.00
2022-10-19T20:16:06.148Z,69.09
2022-10-19T20:18:32.536Z,69.42
2022-10-19T20:21:03.247Z,69.30
2022-10-19T20:23:30.794Z,69.39
2022-10-19T20:25:57.358Z,69.28
2022-10-19T20:28:25.044Z,69.79
2022-10-19T20:31:07.617Z,68.96
2022-10-19T20:33:36.140Z,69.37
2022-10-19T20:36:17.634Z,69.71
2022-10-19T20:38:53.030Z,70.14
2022-10-19T20:41:21.558Z,69.92
2022-10-19T20:43:48.335Z,70.46
2022-10-19T20:46:15.950Z,70.19
2022-10-19T20:48:42.464Z,70.29
2022-10-19T20:51:19.366Z,70.38
2022-10-19T20:53:48.648Z,70.05
2022-10-19T20:56:17.611Z,70.56
2022-10-19T20:58:45.054Z,70.50
2022-10-19T21:01:17.186Z,70.71
2022-10-19T21:03:52.684Z,70.47
2022-10-19T21:06:20.665Z,70.13
2022-10-19T21:08:47.261Z,70.28
2022-10-19T21:11:16.265Z,70.45
2022-10-19T21:13:43.105Z,70.17
2022-10-19T21:16:11.836Z,70.10
2022-10-19T21:18:38.294Z,69.56
2022-10-19T21:21:25.485Z,70.11
2022-10-19T21:23:57.232Z,70.05
2022-10-19T21:26:30.074Z,70.42
2022-10-19T21:28:56.919Z,70.42
2022-10-19T21:31:25.057Z,70.45
2022-10-19T21:33:51.957Z,70.06
2022-10-19T21:36:19.459Z,70.32
2022-10-19T21:38:45.834Z,70.32
2022-10-19T21:41:15.926Z,70.22
2022-10-19T21:43:42.784Z,70.10
2022-10-19T21:46:13.084Z,70.31
2022-10-19T21:48:39.683Z,70.20
2022-10-19T21:51:18.190Z,70.07
2022-10-19T21:53:45.155Z,70.92
2022-10-19T21:56:11.533Z,70.30
2022-10-19T21:58:38.022Z,69.75
2022-10-19T22:01:08.317Z,70.41
2022-10-19T22:03:34.707Z,70.17
2022-10-19T22:06:01.106Z,70.05
2022-10-19T22:08:27.586Z,69.95
2022-10-19T22:10:53.998Z,69.87
2022-10-19T22:13:20.337Z,70.15
2022-10-19T22:15:46.717Z,70.05
2022-10-19T22:18:13.112Z,70.06
2022-10-19T22:20:40.209Z,70.20
2022-10-19T22:23:07.965Z,70.20
2022-10-19T22:25:35.589Z,70.18
2022-10-19T22:28:02.429Z,70.26
2022-10-19T22:30:28.890Z,70.60
2022-10-19T22:32:55.841Z,70.30
2022-10-19T22:35:22.350Z,70.36
2022-10-19T22:37:48.693Z,70.02
2022-10-19T22:40:15.158Z,70.18
2022-10-19T22:42:41.538Z,70.31
2022-10-19T22:45:08.308Z,70.16
2022-10-19T22:47:34.708Z,70.27
2022-10-19T22:50:01.116Z,70.31
2022-10-19T22:52:27.478Z,70.48
2022-10-19T22:54:54.221Z,70.30
2022-10-19T22:57:20.553Z,70.83
2022-10-19T22:59:46.895Z,70.49
2022-10-19T23:02:13.255Z,71.05
2022-10-19T23:04:39.626Z,70.77
2022-10-19T23:07:06.023Z,70.87
2022-10-19T23:09:32.452Z,71.30
2022-10-19T23:11:58.829Z,71.44
2022-10-19T23:14:25.293Z,71.14
2022-10-19T23:16:51.649Z,71.19
2022-10-19T23:19:18.061Z,71.72
2022-10-19T23:21:44.433Z,71.91
2022-10-19T23:24:10.791Z,72.09
2022-10-19T23:26:37.333Z,71.85
2022-10-19T23:29:03.754Z,71.67
2022-10-19T23:31:30.502Z,71.93
2022-10-19T23:33:56.913Z,72.46
2022-10-19T23:36:26.771Z,72.21
2022-10-19T23:38:54.706Z,72.23
2022-10-19T23:41:21.358Z,72.48
2022-10-19T23:43:48.193Z,72.60
2022-10-19T23:46:14.612Z,72.09
2022-10-19T23:48:41.838Z,71.94
2022-10-19T23:51:11.154Z,71.99
2022-10-19T23:53:41.055Z,72.01
2022-10-19T23:56:13.586Z,72.37
2022-10-19T23:58:40.160Z,72.21
